createdAt,value
2022-08-19T00:01:02.760Z,20
2022-08-19T00:06:08.845Z,20
2022-08-19T00:11:14.950Z,20
2022-08-19T00:16:21.024Z,20
2022-08-19T00:21:27.132Z,19.9
2022-08-19T00:26:33.225Z,19.9
2022-08-19T00:31:39.323Z,19.9
2022-08-19T00:36:45.408Z,19.9
2022-08-19T00:41:51.507Z,19.9
2022-08-19T00:46:57.598Z,19.9
2022-08-19T00:52:03.688Z,19.9
2022-08-19T00:57:08.790Z,19.9
2022-08-19T01:02:14.900Z,19.9
2022-08-19T01:07:20.979Z,19.9
2022-08-19T01:12:27.085Z,19.9
2022-08-19T01:17:33.171Z,19.9
2022-08-19T01:22:39.266Z,19.8
2022-08-19T01:27:45.354Z,19.8
2022-08-19T01:32:51.478Z,19.7
2022-08-19T01:37:57.541Z,19.7
2022-08-19T01:43:03.636Z,19.6
2022-08-19T01:48:09.726Z,19.6
2022-08-19T01:53:15.829Z,19.5
2022-08-19T01:58:21.913Z,19.5
2022-08-19T02:03:27.022Z,19.6
2022-08-19T02:08:33.132Z,19.5
2022-08-19T02:13:39.209Z,19.5
2022-08-19T02:18:45.304Z,19.6
2022-08-19T02:23:51.395Z,19.6
2022-08-19T02:28:57.500Z,19.6
2022-08-19T02:34:02.605Z,19.6
2022-08-19T02:39:08.700Z,19.6
2022-08-19T02:44:14.792Z,19.6
2022-08-19T02:49:20.893Z,19.6
2022-08-19T02:54:26.991Z,19.6
2022-08-19T02:59:33.087Z,19.6
2022-08-19T03:04:39.185Z,19.6
2022-08-19T03:09:45.257Z,19.7
2022-08-19T03:14:51.366Z,19.7
2022-08-19T03:19:57.458Z,19.7
2022-08-19T03:25:03.536Z,19.8
2022-08-19T03:30:09.638Z,19.8
2022-08-19T03:35:15.733Z,19.8
2022-08-19T03:40:20.845Z,19.8
2022-08-19T03:45:26.938Z,19.8
2022-08-19T03:50:33.032Z,19.8
2022-08-19T03:55:39.127Z,19.8
2022-08-19T04:00:45.221Z,19.8
2022-08-19T04:05:51.313Z,19.9
2022-08-19T04:10:57.419Z,19.9
2022-08-19T04:16:03.507Z,19.9
2022-08-19T04:21:09.596Z,19.9
2022-08-19T04:26:15.696Z,19.9
2022-08-19T04:31:21.796Z,19.9
2022-08-19T04:36:27.880Z,19.9
2022-08-19T04:41:33.988Z,20
2022-08-19T04:46:39.091Z,19.9
2022-08-19T04:51:45.175Z,20
2022-08-19T05:01:57.358Z,20
2022-08-19T05:07:03.460Z,20
2022-08-19T05:12:09.553Z,20
2022-08-19T05:17:15.656Z,19.9
2022-08-19T05:22:21.753Z,19.9
2022-08-19T05:27:27.838Z,19.9
2022-08-19T05:32:33.919Z,19.8
2022-08-19T05:37:40.021Z,19.8
2022-08-19T05:42:46.128Z,19.9
2022-08-19T05:47:52.206Z,19.9
2022-08-19T05:52:57.316Z,19.9
2022-08-19T05:58:03.423Z,20
2022-08-19T06:03:09.513Z,20
2022-08-19T06:08:15.610Z,20
2022-08-19T06:13:21.714Z,20
2022-08-19T06:18:27.791Z,20.1
2022-08-19T06:23:33.887Z,20
2022-08-19T06:28:39.992Z,20.1
2022-08-19T06:33:46.111Z,20.1
2022-08-19T06:38:52.181Z,20.1
2022-08-19T06:43:58.262Z,20.1
2022-08-19T06:49:04.358Z,20.2
2022-08-19T06:54:10.488Z,20.1
2022-08-19T06:59:15.559Z,20.1
2022-08-19T07:04:21.667Z,20.1
2022-08-19T07:09:27.773Z,20.2
2022-08-19T07:14:33.850Z,20.1
2022-08-19T07:19:39.948Z,20.1
2022-08-19T07:24:46.045Z,20
2022-08-19T07:29:52.142Z,20.1
2022-08-19T07:34:58.243Z,20
2022-08-19T07:40:04.312Z,20
2022-08-19T07:45:10.416Z,20
2022-08-19T07:50:16.512Z,19.9
2022-08-19T07:55:22.595Z,19.9
2022-08-19T08:00:28.708Z,19.9
2022-08-19T08:05:33.810Z,19.9
2022-08-19T08:10:39.905Z,19.9
2022-08-19T08:15:46.004Z,20
2022-08-19T08:20:52.091Z,20
2022-08-19T08:25:58.195Z,20
2022-08-19T08:31:04.290Z,20.1
2022-08-19T08:36:10.371Z,20
2022-08-19T08:41:16.470Z,20
2022-08-19T08:46:22.569Z,20
2022-08-19T08:51:28.650Z,20.1
2022-08-19T09:01:40.852Z,20.2
2022-08-19T09:06:46.937Z,20.2
2022-08-19T09:11:52.054Z,20.3
2022-08-19T09:16:58.135Z,20.5
2022-08-19T09:22:04.245Z,20.5
2022-08-19T09:27:10.324Z,20.4
2022-08-19T09:32:16.435Z,20.3
2022-08-19T09:37:22.516Z,20.4
2022-08-19T09:42:28.615Z,20.4
2022-08-19T09:47:34.709Z,20.4
2022-08-19T09:52:40.792Z,20.4
2022-08-19T09:57:46.893Z,20.5
2022-08-19T10:02:53.021Z,20.4
2022-08-19T10:07:59.072Z,20.5
2022-08-19T10:13:05.186Z,20.5
2022-08-19T10:18:10.284Z,20.4
2022-08-19T10:23:16.375Z,20.3
2022-08-19T10:28:22.483Z,20.3
2022-08-19T10:33:28.572Z,20.2
2022-08-19T10:38:34.652Z,20.2
2022-08-19T10:43:40.781Z,20.3
2022-08-19T10:48:46.846Z,20.5
2022-08-19T10:53:52.952Z,20.9
2022-08-19T10:58:59.035Z,21.9
2022-08-19T11:04:05.125Z,22.8
2022-08-19T11:09:11.217Z,23.6
2022-08-19T11:14:17.317Z,24.7
2022-08-19T11:19:23.409Z,24.6
2022-08-19T11:24:28.532Z,24.7
2022-08-19T11:29:34.621Z,25.3
2022-08-19T11:34:40.705Z,25.5
2022-08-19T11:39:46.820Z,25.4
2022-08-19T11:44:52.917Z,24.7
2022-08-19T11:49:58.996Z,24.9
2022-08-19T11:55:05.100Z,25.7
2022-08-19T12:00:11.177Z,25
2022-08-19T12:05:17.272Z,24.6
2022-08-19T12:10:23.394Z,24.6
2022-08-19T12:15:29.477Z,24.9
2022-08-19T12:20:35.572Z,25.5
2022-08-19T12:25:41.661Z,26
2022-08-19T12:30:46.779Z,25.6
2022-08-19T12:35:52.861Z,25.3
2022-08-19T12:40:58.956Z,25.4
2022-08-19T12:46:05.059Z,25.2
2022-08-19T12:51:11.140Z,24.9
2022-08-19T12:56:17.240Z,24.8
2022-08-19T13:01:23.343Z,24.5
2022-08-19T13:06:29.429Z,24.5
2022-08-19T13:11:35.513Z,24.7
2022-08-19T13:16:41.606Z,24.9
2022-08-19T13:21:47.695Z,25
2022-08-19T13:26:53.807Z,25
2022-08-19T13:31:59.885Z,25.2
2022-08-19T13:37:05.006Z,25
2022-08-19T13:42:11.095Z,24.7
2022-08-19T13:47:17.194Z,24.8
2022-08-19T13:52:23.285Z,24.5
2022-08-19T13:57:29.415Z,24.2
2022-08-19T14:02:35.477Z,23.7
2022-08-19T14:07:41.578Z,23.4
2022-08-19T14:12:47.661Z,23.4
2022-08-19T14:17:53.761Z,23.3
2022-08-19T14:22:59.863Z,23.2
2022-08-19T14:28:05.937Z,23.2
2022-08-19T14:33:12.046Z,23.1
2022-08-19T14:38:18.132Z,22.9
2022-08-19T14:43:23.248Z,22.7
2022-08-19T14:48:29.342Z,22.7
2022-08-19T14:53:35.450Z,22.5
2022-08-19T14:58:41.529Z,22.4
2022-08-19T15:03:47.637Z,22.2
2022-08-19T15:08:53.732Z,22.1
2022-08-19T15:13:59.821Z,22.1
2022-08-19T15:19:05.924Z,22.1
2022-08-19T15:24:12.011Z,22
2022-08-19T15:29:18.097Z,22
2022-08-19T15:34:24.199Z,22
2022-08-19T15:39:30.289Z,22
2022-08-19T15:44:36.392Z,21.9
2022-08-19T15:49:41.496Z,22
2022-08-19T15:54:47.583Z,22.1
2022-08-19T15:59:53.688Z,22.3
2022-08-19T16:04:59.779Z,22.4
2022-08-19T16:10:05.881Z,22.4
2022-08-19T16:15:11.966Z,22.4
2022-08-19T16:20:18.067Z,22.2
2022-08-19T16:25:24.154Z,22.2
2022-08-19T16:30:30.241Z,22.1
2022-08-19T16:35:36.339Z,22
2022-08-19T16:40:42.440Z,22
2022-08-19T16:45:48.530Z,22
2022-08-19T16:50:54.620Z,22
2022-08-19T16:55:59.742Z,22.1
2022-08-19T17:01:05.820Z,22.1
2022-08-19T17:06:11.929Z,22.1
2022-08-19T17:11:18.007Z,22
2022-08-19T17:16:24.115Z,21.9
2022-08-19T17:21:30.219Z,21.9
2022-08-19T17:26:36.292Z,21.7
2022-08-19T17:31:42.386Z,21.6
2022-08-19T17:36:48.478Z,21.6
2022-08-19T17:41:54.576Z,21.5
2022-08-19T17:47:00.667Z,21.4
2022-08-19T17:52:06.779Z,21.4
2022-08-19T17:57:12.870Z,21.3
2022-08-19T18:02:17.969Z,21.2
2022-08-19T18:07:24.066Z,21.2
2022-08-19T18:12:30.153Z,21.1
2022-08-19T18:17:36.239Z,21
2022-08-19T18:22:42.344Z,21
2022-08-19T18:27:48.431Z,20.9
2022-08-19T18:32:54.523Z,20.9
2022-08-19T18:38:00.632Z,20.8
2022-08-19T18:43:06.717Z,20.8
2022-08-19T18:48:12.809Z,20.7
2022-08-19T18:53:18.915Z,20.7
2022-08-19T18:58:24.998Z,20.7
2022-08-19T19:03:31.112Z,20.6
2022-08-19T19:08:36.206Z,20.6
2022-08-19T19:13:42.304Z,20.6
2022-08-19T19:18:48.376Z,20.5
2022-08-19T19:23:54.482Z,20.5
2022-08-19T19:29:00.578Z,20.5
2022-08-19T19:34:06.680Z,20.4
2022-08-19T19:39:11.823Z,20.4
2022-08-19T19:44:17.889Z,20.3
2022-08-19T19:49:23.980Z,20.3
2022-08-19T19:54:30.066Z,20.3
2022-08-19T19:59:36.154Z,20.2
2022-08-19T20:04:42.265Z,20.2
2022-08-19T20:09:48.359Z,20.2
2022-08-19T20:14:54.445Z,20.2
2022-08-19T20:20:00.553Z,20.1
2022-08-19T20:25:06.648Z,20.1
2022-08-19T20:30:12.764Z,20.1
2022-08-19T20:35:18.843Z,20.1
2022-08-19T20:40:24.934Z,20.1
2022-08-19T20:45:30.053Z,20.1
2022-08-19T20:50:36.131Z,20
2022-08-19T20:55:42.231Z,20
2022-08-19T21:00:48.326Z,20
2022-08-19T21:05:54.417Z,20
2022-08-19T21:11:00.502Z,20
2022-08-19T21:16:06.611Z,20
2022-08-19T21:21:12.692Z,20
2022-08-19T21:26:18.776Z,20
2022-08-19T21:31:24.881Z,20
2022-08-19T21:36:30.980Z,20
2022-08-19T21:41:37.075Z,20.1
2022-08-19T21:46:43.169Z,20.1
2022-08-19T21:51:48.266Z,20.1
2022-08-19T21:56:54.366Z,20
2022-08-19T22:02:00.459Z,20
2022-08-19T22:07:06.555Z,20
2022-08-19T22:12:12.652Z,19.9
2022-08-19T22:17:18.745Z,19.9
2022-08-19T22:22:24.845Z,19.9
2022-08-19T22:27:30.924Z,19.9
2022-08-19T22:32:37.027Z,19.9
2022-08-19T22:37:43.142Z,19.9
2022-08-19T22:42:49.212Z,19.9
2022-08-19T22:47:55.304Z,19.9
2022-08-19T22:53:01.416Z,19.9
2022-08-19T22:58:06.505Z,19.9
2022-08-19T23:03:12.600Z,19.9
2022-08-19T23:08:18.690Z,19.8
2022-08-19T23:13:24.793Z,19.8
2022-08-19T23:18:30.876Z,19.8
2022-08-19T23:23:36.990Z,19.8
2022-08-19T23:28:43.087Z,19.8
2022-08-19T23:33:49.179Z,19.8
2022-08-19T23:38:55.275Z,19.8
2022-08-19T23:44:01.367Z,19.7
2022-08-19T23:49:07.453Z,19.7
2022-08-19T23:54:13.547Z,19.6
2022-08-19T23:59:19.637Z,19.6
